createdAt,value
2019-05-01T00:00:26.757Z,20.50
2019-05-01T00:03:15.229Z,19.52
2019-05-01T00:08:15.215Z,20.37
2019-05-01T00:10:44.682Z,20.37
2019-05-01T00:13:14.247Z,21.02
2019-05-01T00:15:43.678Z,24.05
2019-05-01T00:18:13.354Z,21.93
2019-05-01T00:20:42.858Z,20.50
2019-05-01T00:23:12.138Z,21.45
2019-05-01T00:25:41.514Z,20.82
2019-05-01T00:28:11.001Z,20.77
2019-05-01T00:30:40.942Z,21.00
2019-05-01T00:33:10.270Z,21.07
2019-05-01T00:35:39.907Z,19.10
2019-05-01T00:38:09.228Z,20.17
2019-05-01T00:40:38.934Z,20.60
2019-05-01T00:43:08.267Z,22.25
2019-05-01T00:45:37.855Z,21.00
2019-05-01T00:48:07.194Z,19.73
2019-05-01T00:50:36.539Z,20.23
2019-05-01T00:53:05.886Z,20.43
2019-05-01T00:55:40.013Z,20.48
2019-05-01T00:58:13.954Z,21.80
2019-05-01T01:00:47.924Z,22.60
2019-05-01T01:03:18.631Z,20.82
2019-05-01T01:05:47.922Z,19.82
2019-05-01T01:08:17.342Z,20.85
2019-05-01T01:10:46.634Z,20.90
2019-05-01T01:13:16.081Z,19.92
2019-05-01T01:15:45.467Z,19.50
2019-05-01T01:18:14.890Z,20.55
2019-05-01T01:20:44.258Z,22.20
2019-05-01T01:23:13.662Z,21.97
2019-05-01T01:25:42.970Z,20.62
2019-05-01T01:28:12.248Z,20.12
2019-05-01T01:30:41.599Z,19.27
2019-05-01T01:33:11.102Z,20.27
2019-05-01T01:35:40.495Z,18.73
2019-05-01T01:38:09.820Z,19.67
2019-05-01T01:40:39.293Z,20.57
2019-05-01T01:43:26.258Z,19.17
2019-05-01T01:48:35.349Z,19.77
2019-05-01T01:51:04.919Z,19.60
2019-05-01T01:53:34.174Z,18.25
2019-05-01T01:56:03.518Z,19.50
2019-05-01T01:58:32.837Z,18.87
2019-05-01T02:01:10.000Z,19.45
2019-05-01T02:03:49.959Z,18.65
2019-05-01T02:06:19.350Z,19.92
2019-05-01T02:08:56.364Z,19.40
2019-05-01T02:11:19.588Z,19.20
2019-05-01T02:13:48.914Z,18.87
2019-05-01T02:16:18.193Z,18.67
2019-05-01T02:18:47.524Z,18.62
2019-05-01T02:21:17.127Z,18.30
2019-05-01T02:23:46.626Z,17.92
2019-05-01T02:26:17.677Z,19.15
2019-05-01T02:29:00.090Z,18.67
2019-05-01T02:31:31.010Z,18.45
2019-05-01T02:34:00.416Z,18.10
2019-05-01T02:36:29.725Z,18.95
2019-05-01T02:38:59.187Z,18.90
2019-05-01T02:41:33.915Z,19.10
2019-05-01T02:44:07.987Z,18.42
2019-05-01T02:46:37.360Z,19.00
2019-05-01T02:49:09.731Z,18.17
2019-05-01T02:51:39.763Z,18.02
2019-05-01T02:54:09.080Z,17.17
2019-05-01T02:56:40.702Z,16.65
2019-05-01T02:59:10.077Z,16.45
2019-05-01T03:01:46.867Z,17.75
2019-05-01T03:04:10.342Z,16.80
2019-05-01T03:06:39.971Z,17.40
2019-05-01T03:09:09.249Z,18.55
2019-05-01T03:11:39.307Z,17.48
2019-05-01T03:14:15.609Z,18.42
2019-05-01T03:16:45.137Z,17.85
2019-05-01T03:19:31.371Z,18.27
2019-05-01T03:22:08.206Z,17.50
2019-05-01T03:24:37.770Z,17.25
2019-05-01T03:27:07.026Z,17.10
2019-05-01T03:29:36.458Z,17.50
2019-05-01T03:32:18.233Z,17.13
2019-05-01T03:34:37.965Z,17.23
2019-05-01T03:37:07.578Z,16.37
2019-05-01T03:39:36.971Z,15.88
2019-05-01T03:42:06.527Z,16.12
2019-05-01T03:44:35.888Z,15.98
2019-05-01T03:47:05.168Z,15.00
2019-05-01T03:49:34.687Z,16.23
2019-05-01T03:52:04.225Z,16.32
2019-05-01T03:54:33.483Z,16.75
2019-05-01T03:57:02.766Z,16.42
2019-05-01T03:59:32.030Z,16.45
2019-05-01T04:02:03.020Z,16.90
2019-05-01T04:04:32.777Z,16.67
2019-05-01T04:07:02.171Z,16.67
2019-05-01T04:09:31.537Z,15.43
2019-05-01T04:12:01.775Z,17.42
2019-05-01T04:14:31.149Z,17.00
2019-05-01T04:17:08.132Z,16.42
2019-05-01T04:19:37.509Z,16.70
2019-05-01T04:22:11.010Z,16.27
2019-05-01T04:24:40.470Z,15.65
2019-05-01T04:27:11.430Z,14.95
2019-05-01T04:29:42.634Z,16.52
2019-05-01T04:32:16.410Z,15.93
2019-05-01T04:34:56.262Z,16.32
2019-05-01T04:37:26.119Z,16.05
2019-05-01T04:39:55.393Z,15.93
2019-05-01T04:42:24.663Z,16.27
2019-05-01T04:44:54.047Z,15.20
2019-05-01T04:47:23.540Z,16.80
2019-05-01T04:49:52.946Z,15.85
2019-05-01T04:52:22.215Z,16.40
2019-05-01T04:54:51.665Z,15.23
2019-05-01T04:57:21.057Z,15.80
2019-05-01T04:59:50.325Z,16.02
2019-05-01T05:02:24.227Z,15.93
2019-05-01T05:04:53.879Z,15.58
2019-05-01T05:07:23.266Z,15.30
2019-05-01T05:09:52.523Z,14.90
2019-05-01T05:12:29.003Z,16.55
2019-05-01T05:15:00.329Z,16.95
2019-05-01T05:17:29.730Z,17.10
2019-05-01T05:19:59.276Z,16.95
2019-05-01T05:22:28.555Z,16.95
2019-05-01T05:24:57.921Z,15.23
2019-05-01T05:27:27.310Z,16.27
2019-05-01T05:29:57.034Z,16.12
2019-05-01T05:32:27.176Z,15.70
2019-05-01T05:34:57.482Z,16.23
2019-05-01T05:37:30.046Z,16.30
2019-05-01T05:40:00.290Z,16.07
2019-05-01T05:42:29.866Z,17.48
2019-05-01T05:44:59.538Z,15.98
2019-05-01T05:47:29.055Z,15.53
2019-05-01T05:49:58.729Z,15.32
2019-05-01T05:52:38.395Z,16.80
2019-05-01T05:55:25.030Z,16.25
2019-05-01T05:57:56.506Z,16.60
2019-05-01T06:00:31.194Z,15.88
2019-05-01T06:03:30.756Z,17.10
2019-05-01T06:05:58.818Z,17.00
2019-05-01T06:08:30.201Z,16.30
2019-05-01T06:11:06.613Z,17.17
2019-05-01T06:16:31.389Z,17.45
2019-05-01T06:22:10.235Z,16.97
2019-05-01T06:25:00.376Z,17.12
2019-05-01T06:27:29.634Z,17.40
2019-05-01T06:29:58.941Z,18.32
2019-05-01T06:32:28.888Z,16.77
2019-05-01T06:35:03.045Z,16.85
2019-05-01T06:38:02.456Z,16.50
2019-05-01T06:40:43.001Z,16.25
2019-05-01T06:43:27.585Z,17.35
2019-05-01T06:46:13.629Z,18.27
2019-05-01T06:48:58.598Z,16.27
2019-05-01T06:51:35.092Z,16.67
2019-05-01T06:56:33.156Z,16.90
2019-05-01T06:59:02.696Z,17.42
2019-05-01T07:01:32.330Z,18.20
2019-05-01T07:04:03.841Z,17.27
2019-05-01T07:06:33.007Z,16.00
2019-05-01T07:09:02.367Z,17.23
2019-05-01T07:11:32.849Z,16.62
2019-05-01T07:14:02.291Z,15.53
2019-05-01T07:16:33.094Z,17.27
2019-05-01T07:19:06.007Z,15.98
2019-05-01T07:21:34.551Z,14.87
2019-05-01T07:24:04.281Z,14.80
2019-05-01T07:26:33.849Z,14.93
2019-05-01T07:29:06.121Z,15.53
2019-05-01T07:31:35.967Z,15.35
2019-05-01T07:34:16.066Z,15.90
2019-05-01T07:36:36.469Z,15.78
2019-05-01T07:39:09.986Z,15.88
2019-05-01T07:41:38.916Z,14.55
2019-05-01T07:44:19.709Z,14.73
2019-05-01T07:46:54.375Z,16.52
2019-05-01T07:49:47.626Z,14.85
2019-05-01T07:52:17.296Z,14.47
2019-05-01T07:54:47.246Z,15.50
2019-05-01T07:57:16.630Z,15.50
2019-05-01T07:59:46.272Z,14.98
2019-05-01T08:02:15.888Z,14.40
2019-05-01T08:04:45.161Z,14.38
2019-05-01T08:07:14.496Z,13.98
2019-05-01T08:09:45.763Z,14.58
2019-05-01T08:12:18.991Z,14.43
2019-05-01T08:14:47.683Z,14.53
2019-05-01T08:17:19.834Z,13.53
2019-05-01T08:19:53.530Z,12.75
2019-05-01T08:22:24.478Z,12.85
2019-05-01T08:24:58.215Z,13.48
2019-05-01T08:27:26.557Z,14.83
2019-05-01T08:29:57.469Z,15.55
2019-05-01T08:32:38.851Z,15.30
2019-05-01T08:35:09.932Z,15.32
2019-05-01T08:37:39.214Z,14.38
2019-05-01T08:40:08.515Z,13.98
2019-05-01T08:42:42.527Z,15.40
2019-05-01T08:45:14.734Z,15.15
2019-05-01T08:48:00.354Z,15.78
2019-05-01T08:50:28.748Z,15.83
2019-05-01T08:52:58.023Z,16.87
2019-05-01T08:55:27.390Z,17.12
2019-05-01T08:57:56.665Z,16.57
2019-05-01T09:00:26.154Z,15.35
2019-05-01T09:03:07.898Z,14.50
2019-05-01T09:05:30.358Z,13.98
2019-05-01T09:07:57.921Z,15.10
2019-05-01T09:10:27.293Z,15.55
2019-05-01T09:12:57.625Z,14.25
2019-05-01T09:15:27.219Z,12.65
2019-05-01T09:17:56.781Z,13.45
2019-05-01T09:20:26.211Z,11.50
2019-05-01T09:22:55.574Z,10.55
2019-05-01T09:25:30.913Z,9.35
2019-05-01T09:28:06.030Z,8.97
2019-05-01T09:30:39.829Z,8.33
2019-05-01T09:33:09.191Z,10.08
2019-05-01T09:35:40.419Z,10.55
2019-05-01T09:38:09.602Z,10.23
2019-05-01T09:40:38.901Z,12.88
2019-05-01T09:43:08.183Z,12.73
2019-05-01T09:45:37.466Z,13.68
2019-05-01T09:48:08.302Z,14.98
2019-05-01T09:50:39.226Z,13.78
2019-05-01T09:53:10.128Z,14.30
2019-05-01T09:55:47.086Z,13.00
2019-05-01T09:58:16.521Z,13.20
2019-05-01T10:00:48.880Z,13.30
2019-05-01T10:03:18.060Z,11.43
2019-05-01T10:05:47.663Z,11.85
2019-05-01T10:08:17.209Z,11.65
2019-05-01T10:10:46.626Z,10.75
2019-05-01T10:13:17.767Z,10.68
2019-05-01T10:15:47.357Z,10.93
2019-05-01T10:18:18.026Z,10.58
2019-05-01T10:20:47.425Z,10.70
2019-05-01T10:23:16.707Z,11.22
2019-05-01T10:25:49.490Z,12.15
2019-05-01T10:28:23.055Z,12.75
2019-05-01T10:30:56.709Z,12.03
2019-05-01T10:33:32.699Z,11.60
2019-05-01T10:36:18.865Z,11.83
2019-05-01T10:38:46.863Z,11.75
2019-05-01T10:41:16.269Z,11.83
2019-05-01T10:43:45.920Z,11.35
2019-05-01T10:46:15.247Z,11.83
2019-05-01T10:48:44.637Z,12.90
2019-05-01T10:51:13.953Z,13.00
2019-05-01T10:53:43.727Z,12.80
2019-05-01T10:56:13.030Z,12.28
2019-05-01T10:58:42.467Z,13.75
2019-05-01T11:01:13.362Z,13.32
2019-05-01T11:03:42.911Z,14.50
2019-05-01T11:06:12.326Z,13.98
2019-05-01T11:08:41.700Z,12.65
2019-05-01T11:11:11.086Z,13.22
2019-05-01T11:13:40.369Z,13.70
2019-05-01T11:16:09.915Z,12.50
2019-05-01T11:18:39.181Z,12.13
2019-05-01T11:21:08.550Z,12.73
2019-05-01T11:23:37.887Z,12.45
2019-05-01T11:26:07.290Z,11.80
2019-05-01T11:28:36.998Z,11.83
2019-05-01T11:31:07.982Z,12.03
2019-05-01T11:33:47.826Z,12.15
2019-05-01T11:36:35.067Z,10.00
2019-05-01T11:39:25.882Z,11.38
2019-05-01T11:41:59.585Z,12.45
2019-05-01T11:44:28.886Z,13.32
2019-05-01T11:47:00.901Z,13.25
2019-05-01T11:49:30.377Z,14.70
2019-05-01T11:51:59.660Z,12.40
2019-05-01T11:54:29.102Z,13.25
2019-05-01T11:56:58.505Z,13.15
2019-05-01T11:59:27.763Z,12.95
2019-05-01T12:01:57.174Z,12.35
2019-05-01T12:04:26.439Z,12.20
2019-05-01T12:06:55.831Z,12.55
2019-05-01T12:09:25.225Z,11.83
2019-05-01T12:11:56.207Z,11.20
2019-05-01T12:14:25.834Z,10.28
2019-05-01T12:16:56.731Z,12.15
2019-05-01T12:19:27.748Z,11.80
2019-05-01T12:21:57.333Z,11.75
2019-05-01T12:24:26.922Z,12.58
2019-05-01T12:26:59.311Z,12.13
2019-05-01T12:29:28.859Z,12.75
2019-05-01T12:31:58.281Z,12.28
2019-05-01T12:34:27.659Z,12.88
2019-05-01T12:37:16.221Z,11.63
2019-05-01T12:39:45.906Z,12.23
2019-05-01T12:42:16.828Z,12.82
2019-05-01T12:44:46.179Z,11.97
2019-05-01T12:47:29.104Z,12.03
2019-05-01T12:50:00.262Z,12.70
2019-05-01T12:52:41.421Z,13.70
2019-05-01T12:55:12.350Z,11.70
2019-05-01T12:57:41.992Z,11.73
2019-05-01T13:00:12.910Z,12.50
2019-05-01T13:02:42.501Z,12.60
2019-05-01T13:05:13.007Z,11.75
2019-05-01T13:07:43.614Z,12.85
2019-05-01T13:10:14.069Z,12.93
2019-05-01T13:12:43.518Z,11.88
2019-05-01T13:15:12.879Z,12.00
2019-05-01T13:17:42.533Z,11.25
2019-05-01T13:20:11.818Z,11.38
2019-05-01T13:22:41.285Z,11.80
2019-05-01T13:25:10.829Z,10.70
2019-05-01T13:27:47.878Z,9.85
2019-05-01T13:30:22.629Z,10.75
2019-05-01T13:32:56.147Z,11.03
2019-05-01T13:35:25.743Z,10.58
2019-05-01T13:37:55.295Z,10.30
2019-05-01T13:40:24.841Z,12.23
2019-05-01T13:42:54.209Z,11.83
2019-05-01T13:45:23.681Z,10.90
2019-05-01T13:47:54.662Z,12.35
2019-05-01T13:50:24.914Z,11.53
2019-05-01T13:52:54.302Z,12.43
2019-05-01T13:55:23.586Z,10.68
2019-05-01T13:57:53.117Z,11.43
2019-05-01T14:00:23.458Z,11.55
2019-05-01T14:02:53.097Z,10.70
2019-05-01T14:05:22.452Z,10.28
2019-05-01T14:07:52.017Z,10.88
2019-05-01T14:10:21.399Z,10.68
2019-05-01T14:12:50.747Z,10.70
2019-05-01T14:15:20.113Z,10.20
2019-05-01T14:17:49.556Z,11.95
2019-05-01T14:20:29.258Z,12.20
2019-05-01T14:23:09.049Z,11.80
2019-05-01T14:25:48.821Z,10.20
2019-05-01T14:28:18.110Z,11.63
2019-05-01T14:30:47.659Z,11.20
2019-05-01T14:33:17.011Z,10.32
2019-05-01T14:35:46.283Z,10.93
2019-05-01T14:38:15.700Z,11.22
2019-05-01T14:40:45.254Z,10.25
2019-05-01T14:43:14.622Z,10.98
2019-05-01T14:45:43.900Z,11.08
2019-05-01T14:48:13.481Z,10.60
2019-05-01T14:50:42.874Z,11.00
2019-05-01T14:53:12.243Z,11.15
2019-05-01T14:55:41.714Z,11.57
2019-05-01T14:58:12.058Z,12.43
2019-05-01T15:00:41.643Z,11.53
2019-05-01T15:03:11.160Z,11.38
2019-05-01T15:05:40.554Z,11.43
2019-05-01T15:08:09.809Z,10.10
2019-05-01T15:10:39.093Z,11.57
2019-05-01T15:13:10.003Z,9.08
2019-05-01T15:15:41.270Z,10.82
2019-05-01T15:18:12.263Z,11.35
2019-05-01T15:20:41.617Z,11.97
2019-05-01T15:23:11.333Z,12.58
2019-05-01T15:25:40.804Z,10.40
2019-05-01T15:28:10.218Z,10.65
2019-05-01T15:30:39.543Z,9.90
2019-05-01T15:33:08.954Z,10.70
2019-05-01T15:35:38.243Z,10.28
2019-05-01T15:38:07.648Z,10.20
2019-05-01T15:40:44.466Z,10.23
2019-05-01T15:43:18.342Z,9.98
2019-05-01T15:45:47.956Z,9.90
2019-05-01T15:48:17.556Z,10.72
2019-05-01T15:50:46.866Z,10.25
2019-05-01T15:53:16.348Z,10.20
2019-05-01T15:55:46.610Z,10.13
2019-05-01T15:58:16.020Z,11.68
2019-05-01T16:00:48.187Z,11.28
2019-05-01T16:03:17.558Z,10.23
2019-05-01T16:05:47.051Z,11.65
2019-05-01T16:08:16.430Z,10.03
2019-05-01T16:10:53.530Z,9.65
2019-05-01T16:13:22.872Z,10.85
2019-05-01T16:15:52.336Z,10.23
2019-05-01T16:18:21.886Z,9.73
2019-05-01T16:20:51.175Z,10.35
2019-05-01T16:23:20.487Z,9.65
2019-05-01T16:25:49.803Z,11.03
2019-05-01T16:28:19.086Z,8.50
2019-05-01T16:30:48.706Z,9.55
2019-05-01T16:33:17.993Z,8.93
2019-05-01T16:35:47.252Z,9.53
2019-05-01T16:38:23.002Z,9.25
2019-05-01T16:41:01.047Z,8.95
2019-05-01T16:43:30.406Z,10.43
2019-05-01T16:45:59.780Z,9.63
2019-05-01T16:48:29.393Z,10.05
2019-05-01T16:50:59.003Z,9.03
2019-05-01T16:53:28.422Z,9.48
2019-05-01T16:55:57.777Z,8.83
2019-05-01T16:58:27.496Z,9.78
2019-05-01T17:00:59.269Z,9.58
2019-05-01T17:03:33.270Z,9.98
2019-05-01T17:06:20.716Z,9.18
2019-05-01T17:08:54.442Z,9.03
2019-05-01T17:11:25.408Z,8.75
2019-05-01T17:13:55.186Z,8.20
2019-05-01T17:16:24.938Z,8.48
2019-05-01T17:18:54.317Z,8.23
2019-05-01T17:21:23.619Z,8.75
2019-05-01T17:23:52.894Z,8.63
2019-05-01T17:26:22.306Z,8.10
2019-05-01T17:28:51.791Z,8.13
2019-05-01T17:31:21.232Z,8.53
2019-05-01T17:33:55.394Z,8.18
2019-05-01T17:36:21.886Z,8.65
2019-05-01T17:38:51.150Z,7.72
2019-05-01T17:41:22.669Z,8.23
2019-05-01T17:43:51.314Z,8.28
2019-05-01T17:46:20.706Z,8.05
2019-05-01T17:48:49.962Z,8.58
2019-05-01T17:51:19.960Z,8.28
2019-05-01T17:53:49.651Z,8.20
2019-05-01T17:56:27.622Z,8.25
2019-05-01T17:58:50.279Z,7.95
2019-05-01T18:01:35.986Z,8.28
2019-05-01T18:04:07.065Z,7.95
2019-05-01T18:06:41.940Z,7.72
2019-05-01T18:09:13.405Z,6.87
2019-05-01T18:11:40.434Z,8.58
2019-05-01T18:14:09.715Z,7.80
2019-05-01T18:16:39.170Z,8.33
2019-05-01T18:19:10.423Z,9.23
2019-05-01T18:21:41.442Z,9.43
2019-05-01T18:24:28.578Z,8.20
2019-05-01T18:27:19.164Z,8.53
2019-05-01T18:29:48.193Z,8.88
2019-05-01T18:32:25.139Z,9.45
2019-05-01T18:34:54.749Z,9.53
2019-05-01T18:37:40.562Z,9.75
2019-05-01T18:40:17.144Z,9.40
2019-05-01T18:42:46.426Z,10.05
2019-05-01T18:45:28.034Z,9.73
2019-05-01T18:47:57.674Z,10.43
2019-05-01T18:50:27.253Z,9.95
2019-05-01T18:52:56.510Z,10.10
2019-05-01T18:55:30.390Z,10.13
2019-05-01T18:57:57.158Z,9.38
2019-05-01T19:00:27.681Z,10.28
2019-05-01T19:02:59.603Z,9.65
2019-05-01T19:05:28.367Z,10.00
2019-05-01T19:07:57.764Z,10.00
2019-05-01T19:10:27.191Z,10.53
2019-05-01T19:12:56.742Z,10.50
2019-05-01T19:15:26.371Z,9.73
2019-05-01T19:17:55.768Z,9.80
2019-05-01T19:20:25.025Z,10.58
2019-05-01T19:22:54.702Z,10.60
2019-05-01T19:25:23.961Z,10.32
2019-05-01T19:27:53.450Z,9.73
2019-05-01T19:30:23.062Z,10.08
2019-05-01T19:32:52.530Z,10.98
2019-05-01T19:35:23.758Z,10.55
2019-05-01T19:37:57.154Z,12.07
2019-05-01T19:40:25.270Z,14.68
2019-05-01T19:42:57.973Z,12.82
2019-05-01T19:45:25.981Z,11.65
2019-05-01T19:47:55.637Z,12.33
2019-05-01T19:50:25.086Z,13.20
2019-05-01T19:52:54.555Z,11.68
2019-05-01T19:55:23.843Z,11.60
2019-05-01T19:57:53.227Z,12.55
2019-05-01T20:00:32.071Z,13.70
2019-05-01T20:03:01.494Z,13.03
2019-05-01T20:05:31.901Z,13.45
2019-05-01T20:08:01.286Z,15.15
2019-05-01T20:10:30.648Z,15.68
2019-05-01T20:13:00.119Z,15.70
2019-05-01T20:15:29.558Z,15.28
2019-05-01T20:17:59.031Z,15.63
2019-05-01T20:20:28.334Z,15.80
2019-05-01T20:22:57.662Z,16.23
2019-05-01T20:25:27.058Z,16.50
2019-05-01T20:27:57.404Z,15.98
2019-05-01T20:30:26.704Z,15.53
2019-05-01T20:32:58.137Z,15.88
2019-05-01T20:35:28.432Z,15.70
2019-05-01T20:37:58.436Z,15.98
2019-05-01T20:40:27.897Z,14.85
2019-05-01T20:43:01.013Z,14.87
2019-05-01T20:45:28.633Z,15.63
2019-05-01T20:47:58.126Z,14.45
2019-05-01T20:50:27.726Z,15.10
2019-05-01T20:52:57.526Z,16.32
2019-05-01T20:55:26.903Z,15.60
2019-05-01T20:58:14.093Z,16.05
2019-05-01T21:00:48.127Z,16.50
2019-05-01T21:03:18.186Z,15.53
2019-05-01T21:05:50.357Z,15.10
2019-05-01T21:08:34.393Z,17.15
2019-05-01T21:11:10.097Z,17.27
2019-05-01T21:13:37.042Z,17.30
2019-05-01T21:16:06.501Z,15.40
2019-05-01T21:18:35.764Z,14.55
2019-05-01T21:21:05.159Z,15.32
2019-05-01T21:23:34.622Z,15.88
2019-05-01T21:26:04.946Z,16.52
2019-05-01T21:28:34.322Z,15.95
2019-05-01T21:31:04.045Z,15.23
2019-05-01T21:33:34.151Z,15.70
2019-05-01T21:36:04.778Z,16.55
2019-05-01T21:38:34.618Z,15.68
2019-05-01T21:41:04.013Z,16.27
2019-05-01T21:43:37.014Z,15.23
2019-05-01T21:46:04.406Z,17.00
2019-05-01T21:48:34.031Z,15.78
2019-05-01T21:51:07.144Z,16.90
2019-05-01T21:53:37.307Z,16.65
2019-05-01T21:56:06.112Z,16.80
2019-05-01T21:58:36.638Z,16.65
2019-05-01T22:01:06.395Z,16.30
2019-05-01T22:03:35.974Z,17.27
2019-05-01T22:06:05.260Z,17.82
2019-05-01T22:08:39.227Z,18.17
2019-05-01T22:11:07.006Z,17.05
2019-05-01T22:13:36.386Z,18.05
2019-05-01T22:16:13.474Z,17.90
2019-05-01T22:18:53.840Z,16.70
2019-05-01T22:21:24.772Z,18.57
2019-05-01T22:24:11.950Z,17.73
2019-05-01T22:26:51.763Z,16.82
2019-05-01T22:29:22.729Z,18.52
2019-05-01T22:31:59.991Z,18.50
2019-05-01T22:34:48.854Z,17.87
2019-05-01T22:37:18.214Z,18.15
2019-05-01T22:40:01.090Z,18.05
2019-05-01T22:42:30.705Z,18.45
2019-05-01T22:44:59.962Z,17.87
2019-05-01T22:47:29.422Z,17.70
2019-05-01T22:49:58.869Z,16.42
2019-05-01T22:52:28.265Z,17.82
2019-05-01T22:54:57.729Z,17.87
2019-05-01T22:57:28.150Z,18.07
2019-05-01T22:59:57.533Z,17.35
2019-05-01T23:02:34.114Z,17.37
2019-05-01T23:05:03.841Z,17.50
2019-05-01T23:07:33.187Z,18.35
2019-05-01T23:10:03.286Z,17.55
2019-05-01T23:12:33.707Z,18.07
2019-05-01T23:15:05.196Z,16.27
2019-05-01T23:17:39.633Z,16.70
2019-05-01T23:20:08.614Z,17.27
2019-05-01T23:22:37.891Z,17.42
2019-05-01T23:25:07.533Z,17.77
2019-05-01T23:27:36.869Z,17.75
2019-05-01T23:30:06.974Z,17.70
2019-05-01T23:32:36.339Z,17.35
2019-05-01T23:35:06.501Z,17.50
2019-05-01T23:37:35.851Z,17.00
2019-05-01T23:40:06.642Z,16.25
2019-05-01T23:42:37.061Z,14.80
2019-05-01T23:45:06.570Z,14.15
2019-05-01T23:47:36.151Z,14.18
2019-05-01T23:50:05.550Z,14.18
2019-05-01T23:52:38.615Z,13.40
2019-05-01T23:55:07.074Z,15.28
2019-05-01T23:57:36.609Z,14.98
